Pot Creek, New Mexico
Current Conditions -  °F | °C
As of 1:15 PM on Saturday 25 Oct 2014 (Local Time) from KSKX Reporting Station
Clear Clear  
Wind Chill: 22°   Ceiling: Unl
Heat Index: 22°   Visibility: 10mi
Dew Point: -7°   Wind: 6mph
Humidity: 14%   Direction: 280°W
Pressure: 30.34"   Gusts: NA
Location:  36.4227°N, 105.509°W
Report Text: KSKX 251915Z AUTO 28005KT 10SM CLR 22/M07 A3034 RMK AO1
Loading
Personal Weather Stations






























Interactive Weather Map
Tropical Storm Tracking
New forecast layout! Learn more

10-Day Weather Forecast

Advertisements
Track Severe Weather on mobile